sensor_id;sensor_type;location;lat;lon;timestamp;pressure;altitude;pressure_sealevel;temperature;humidity
21433;BME280;18592;49.708;10.900;2023-12-20T00:00:11;98535.56;;;9.60;58.27
21433;BME280;18592;49.708;10.900;2023-12-20T00:02:12;98531.16;;;9.59;57.88
21433;BME280;18592;49.708;10.900;2023-12-20T00:04:14;98525.72;;;9.59;57.90
21433;BME280;18592;49.708;10.900;2023-12-20T00:06:15;98527.66;;;9.58;58.27
21433;BME280;18592;49.708;10.900;2023-12-20T00:08:17;98524.94;;;9.58;58.35
21433;BME280;18592;49.708;10.900;2023-12-20T00:10:19;98523.00;;;9.59;58.10
21433;BME280;18592;49.708;10.900;2023-12-20T00:12:20;98515.69;;;9.59;58.09
21433;BME280;18592;49.708;10.900;2023-12-20T00:14:22;98519.50;;;9.58;58.42
21433;BME280;18592;49.708;10.900;2023-12-20T00:16:27;98520.28;;;9.59;58.01
21433;BME280;18592;49.708;10.900;2023-12-20T00:18:29;98516.78;;;9.58;58.21
21433;BME280;18592;49.708;10.900;2023-12-20T00:20:35;98509.66;;;9.57;58.27
21433;BME280;18592;49.708;10.900;2023-12-20T00:22:37;98508.59;;;9.58;58.32
21433;BME280;18592;49.708;10.900;2023-12-20T00:24:39;98503.97;;;9.59;58.16
21433;BME280;18592;49.708;10.900;2023-12-20T00:26:40;98504.78;;;9.59;58.49
21433;BME280;18592;49.708;10.900;2023-12-20T00:28:41;98507.78;;;9.58;58.37
21433;BME280;18592;49.708;10.900;2023-12-20T00:30:44;98501.25;;;9.59;58.25
21433;BME280;18592;49.708;10.900;2023-12-20T00:32:45;98497.47;;;9.60;58.09
21433;BME280;18592;49.708;10.900;2023-12-20T00:34:50;98493.69;;;9.61;58.24
21433;BME280;18592;49.708;10.900;2023-12-20T00:36:51;98507.50;;;9.59;58.12
21433;BME280;18592;49.708;10.900;2023-12-20T00:38:53;98499.34;;;9.59;58.26
21433;BME280;18592;49.708;10.900;2023-12-20T00:40:54;98491.19;;;9.59;58.37
21433;BME280;18592;49.708;10.900;2023-12-20T00:42:56;98495.81;;;9.59;58.11
21433;BME280;18592;49.708;10.900;2023-12-20T00:44:58;98492.03;;;9.60;58.25
21433;BME280;18592;49.708;10.900;2023-12-20T00:47:00;98491.19;;;9.59;58.50
21433;BME280;18592;49.708;10.900;2023-12-20T00:49:02;98492.84;;;9.61;58.26
21433;BME280;18592;49.708;10.900;2023-12-20T00:51:04;98491.19;;;9.59;58.25
21433;BME280;18592;49.708;10.900;2023-12-20T00:53:05;98492.84;;;9.61;58.58
21433;BME280;18592;49.708;10.900;2023-12-20T00:55:07;98486.84;;;9.58;58.53
21433;BME280;18592;49.708;10.900;2023-12-20T00:57:09;98473.22;;;9.58;58.54
21433;BME280;18592;49.708;10.900;2023-12-20T00:59:10;98483.84;;;9.60;58.71
21433;BME280;18592;49.708;10.900;2023-12-20T01:01:12;98475.13;;;9.58;58.42
21433;BME280;18592;49.708;10.900;2023-12-20T01:03:14;98477.59;;;9.59;58.50
21433;BME280;18592;49.708;10.900;2023-12-20T01:05:18;98477.59;;;9.59;58.81
21433;BME280;18592;49.708;10.900;2023-12-20T01:07:19;98470.50;;;9.58;58.79
21433;BME280;18592;49.708;10.900;2023-12-20T01:09:21;98471.31;;;9.59;58.46
21433;BME280;18592;49.708;10.900;2023-12-20T01:11:24;98468.59;;;9.59;58.39
21433;BME280;18592;49.708;10.900;2023-12-20T01:13:26;98468.59;;;9.59;58.41
21433;BME280;18592;49.708;10.900;2023-12-20T01:15:27;98458.53;;;9.59;58.33
21433;BME280;18592;49.708;10.900;2023-12-20T01:17:29;98458.78;;;9.58;58.61
21433;BME280;18592;49.708;10.900;2023-12-20T01:19:30;98453.91;;;9.60;58.60
21433;BME280;18592;49.708;10.900;2023-12-20T01:21:32;98455.81;;;9.59;58.63
21433;BME280;18592;49.708;10.900;2023-12-20T01:23:34;98452.25;;;9.59;58.50
21433;BME280;18592;49.708;10.900;2023-12-20T01:25:35;98444.94;;;9.59;58.69
21433;BME280;18592;49.708;10.900;2023-12-20T01:27:36;98451.19;;;9.60;58.30
21433;BME280;18592;49.708;10.900;2023-12-20T01:29:43;98449.31;;;9.61;58.98
21433;BME280;18592;49.708;10.900;2023-12-20T01:31:45;98457.69;;;9.59;58.71
21433;BME280;18592;49.708;10.900;2023-12-20T01:33:46;98450.38;;;9.59;58.56
21433;BME280;18592;49.708;10.900;2023-12-20T01:35:48;98450.38;;;9.59;58.70
21433;BME280;18592;49.708;10.900;2023-12-20T01:37:50;98451.69;;;9.57;58.91
21433;BME280;18592;49.708;10.900;2023-12-20T01:39:51;98446.25;;;9.57;58.94
21433;BME280;18592;49.708;10.900;2023-12-20T01:41:53;98452.53;;;9.57;59.08
21433;BME280;18592;49.708;10.900;2023-12-20T01:43:55;98440.81;;;9.57;58.92
21433;BME280;18592;49.708;10.900;2023-12-20T01:45:57;98443.78;;;9.55;58.54
21433;BME280;18592;49.708;10.900;2023-12-20T01:47:59;98441.91;;;9.56;58.74
21433;BME280;18592;49.708;10.900;2023-12-20T01:50:07;98435.84;;;9.54;59.02
21433;BME280;18592;49.708;10.900;2023-12-20T01:52:10;98437.50;;;9.55;58.71
21433;BME280;18592;49.708;10.900;2023-12-20T01:54:13;98436.69;;;9.54;58.72
21433;BME280;18592;49.708;10.900;2023-12-20T01:56:15;98436.69;;;9.54;58.75
21433;BME280;18592;49.708;10.900;2023-12-20T01:58:17;98442.13;;;9.54;58.79
21433;BME280;18592;49.708;10.900;2023-12-20T02:00:21;98437.78;;;9.53;58.91
21433;BME280;18592;49.708;10.900;2023-12-20T02:02:27;98439.66;;;9.53;58.79
21433;BME280;18592;49.708;10.900;2023-12-20T02:04:29;98436.13;;;9.52;58.58
21433;BME280;18592;49.708;10.900;2023-12-20T02:06:30;98442.63;;;9.51;58.67
21433;BME280;18592;49.708;10.900;2023-12-20T02:08:35;98442.63;;;9.51;58.93
21433;BME280;18592;49.708;10.900;2023-12-20T02:10:37;98436.38;;;9.51;58.55
21433;BME280;18592;49.708;10.900;2023-12-20T02:12:40;98436.38;;;9.51;58.97
21433;BME280;18592;49.708;10.900;2023-12-20T02:14:41;98435.53;;;9.50;58.95
21433;BME280;18592;49.708;10.900;2023-12-20T02:16:43;98432.81;;;9.50;58.59
21433;BME280;18592;49.708;10.900;2023-12-20T02:18:48;98430.09;;;9.50;58.59
21433;BME280;18592;49.708;10.900;2023-12-20T02:20:54;98425.97;;;9.48;58.91
21433;BME280;18592;49.708;10.900;2023-12-20T02:22:56;98422.44;;;9.47;58.52
21433;BME280;18592;49.708;10.900;2023-12-20T02:24:57;98415.09;;;9.48;58.65
21433;BME280;18592;49.708;10.900;2023-12-20T02:27:00;98417.25;;;9.46;58.94
21433;BME280;18592;49.708;10.900;2023-12-20T02:29:02;98418.88;;;9.47;59.00
21433;BME280;18592;49.708;10.900;2023-12-20T02:31:03;98415.31;;;9.46;58.70
21433;BME280;18592;49.708;10.900;2023-12-20T02:33:07;98415.59;;;9.45;58.87
21433;BME280;18592;49.708;10.900;2023-12-20T02:35:10;98420.19;;;9.44;58.86
21433;BME280;18592;49.708;10.900;2023-12-20T02:37:12;98413.13;;;9.43;58.75
21433;BME280;18592;49.708;10.900;2023-12-20T02:39:14;98419.38;;;9.44;58.68
21433;BME280;18592;49.708;10.900;2023-12-20T02:41:15;98418.56;;;9.43;59.00
21433;BME280;18592;49.708;10.900;2023-12-20T02:43:22;98426.13;;;9.41;58.61
21433;BME280;18592;49.708;10.900;2023-12-20T02:45:24;98427.22;;;9.40;58.80
21433;BME280;18592;49.708;10.900;2023-12-20T02:47:26;98425.56;;;9.39;58.79
21433;BME280;18592;49.708;10.900;2023-12-20T02:49:27;98424.72;;;9.39;59.05
21433;BME280;18592;49.708;10.900;2023-12-20T02:51:29;98432.06;;;9.38;58.91
21433;BME280;18592;49.708;10.900;2023-12-20T02:53:31;98428.53;;;9.38;58.68
21433;BME280;18592;49.708;10.900;2023-12-20T02:55:32;98429.34;;;9.38;58.60
21433;BME280;18592;49.708;10.900;2023-12-20T02:57:34;98424.97;;;9.37;58.58
21433;BME280;18592;49.708;10.900;2023-12-20T02:59:37;98427.97;;;9.36;58.90
21433;BME280;18592;49.708;10.900;2023-12-20T03:01:43;98423.31;;;9.36;58.98
21433;BME280;18592;49.708;10.900;2023-12-20T03:03:46;98419.78;;;9.36;58.55
21433;BME280;18592;49.708;10.900;2023-12-20T03:05:49;98427.34;;;9.34;58.85
21433;BME280;18592;49.708;10.900;2023-12-20T03:07:50;98429.28;;;9.33;58.56
21433;BME280;18592;49.708;10.900;2023-12-20T03:09:52;98432.00;;;9.33;59.18
21433;BME280;18592;49.708;10.900;2023-12-20T03:12:13;98412.34;;;9.31;58.92
21433;BME280;18592;49.708;10.900;2023-12-20T03:14:15;98422.44;;;9.31;58.75
21433;BME280;18592;49.708;10.900;2023-12-20T03:16:16;98423.22;;;9.31;59.09
21433;BME280;18592;49.708;10.900;2023-12-20T03:18:18;98425.94;;;9.31;58.78
21433;BME280;18592;49.708;10.900;2023-12-20T03:20:19;98433.53;;;9.29;58.55
21433;BME280;18592;49.708;10.900;2023-12-20T03:22:21;98433.53;;;9.29;58.93
21433;BME280;18592;49.708;10.900;2023-12-20T03:24:22;98437.34;;;9.28;58.82
21433;BME280;18592;49.708;10.900;2023-12-20T03:26:24;98440.28;;;9.27;59.14
21433;BME280;18592;49.708;10.900;2023-12-20T03:28:27;98436.50;;;9.28;58.83
21433;BME280;18592;49.708;10.900;2023-12-20T03:30:29;98426.69;;;9.27;58.78
21433;BME280;18592;49.708;10.900;2023-12-20T03:32:30;98430.50;;;9.26;59.08
21433;BME280;18592;49.708;10.900;2023-12-20T03:34:32;98436.75;;;9.26;58.86
21433;BME280;18592;49.708;10.900;2023-12-20T03:36:33;98435.09;;;9.25;58.94
21433;BME280;18592;49.708;10.900;2023-12-20T03:38:35;98440.56;;;9.25;58.65
21433;BME280;18592;49.708;10.900;2023-12-20T03:40:45;98439.97;;;9.23;58.90
21433;BME280;18592;49.708;10.900;2023-12-20T03:42:47;98440.78;;;9.24;58.88
21433;BME280;18592;49.708;10.900;2023-12-20T03:44:48;98445.41;;;9.23;58.72
21433;BME280;18592;49.708;10.900;2023-12-20T03:46:50;98438.31;;;9.22;58.94
21433;BME280;18592;49.708;10.900;2023-12-20T03:48:51;98439.16;;;9.23;58.75
21433;BME280;18592;49.708;10.900;2023-12-20T03:50:53;98442.91;;;9.22;58.89
21433;BME280;18592;49.708;10.900;2023-12-20T03:52:55;98430.41;;;9.21;58.94
21433;BME280;18592;49.708;10.900;2023-12-20T03:54:59;98436.66;;;9.21;59.08
21433;BME280;18592;49.708;10.900;2023-12-20T03:57:01;98439.38;;;9.21;59.17
21433;BME280;18592;49.708;10.900;2023-12-20T03:59:03;98439.63;;;9.20;58.88
21433;BME280;18592;49.708;10.900;2023-12-20T04:01:09;98443.41;;;9.19;58.96
21433;BME280;18592;49.708;10.900;2023-12-20T04:03:16;98429.81;;;9.19;58.99
21433;BME280;18592;49.708;10.900;2023-12-20T04:05:25;98435.50;;;9.17;58.93
21433;BME280;18592;49.708;10.900;2023-12-20T04:07:27;98443.66;;;9.17;59.03
21433;BME280;18592;49.708;10.900;2023-12-20T04:09:29;98448.28;;;9.17;59.00
21433;BME280;18592;49.708;10.900;2023-12-20T04:11:30;98449.34;;;9.16;59.25
21433;BME280;18592;49.708;10.900;2023-12-20T04:13:32;98433.84;;;9.16;59.07
21433;BME280;18592;49.708;10.900;2023-12-20T04:15:33;98443.91;;;9.16;58.80
21433;BME280;18592;49.708;10.900;2023-12-20T04:17:35;98437.66;;;9.15;58.95
21433;BME280;18592;49.708;10.900;2023-12-20T04:19:38;98444.72;;;9.16;58.88
21433;BME280;18592;49.708;10.900;2023-12-20T04:21:39;98436.81;;;9.15;58.94
21433;BME280;18592;49.708;10.900;2023-12-20T04:23:41;98444.16;;;9.14;58.88
21433;BME280;18592;49.708;10.900;2023-12-20T04:25:42;98437.88;;;9.14;59.21
21433;BME280;18592;49.708;10.900;2023-12-20T04:27:47;98445.25;;;9.13;59.04
21433;BME280;18592;49.708;10.900;2023-12-20T04:29:49;98440.84;;;9.12;58.81
21433;BME280;18592;49.708;10.900;2023-12-20T04:31:51;98443.56;;;9.12;59.06
21433;BME280;18592;49.708;10.900;2023-12-20T04:33:57;98435.69;;;9.11;58.78
21433;BME280;18592;49.708;10.900;2023-12-20T04:35:59;98447.34;;;9.11;58.92
21433;BME280;18592;49.708;10.900;2023-12-20T04:38:01;98447.34;;;9.11;59.20
21433;BME280;18592;49.708;10.900;2023-12-20T04:40:03;98445.72;;;9.10;59.16
21433;BME280;18592;49.708;10.900;2023-12-20T04:42:06;98453.03;;;9.10;58.98
21433;BME280;18592;49.708;10.900;2023-12-20T04:44:08;98454.09;;;9.09;59.09
21433;BME280;18592;49.708;10.900;2023-12-20T04:46:10;98454.34;;;9.07;58.82
21433;BME280;18592;49.708;10.900;2023-12-20T04:48:11;98448.91;;;9.07;59.11
21433;BME280;18592;49.708;10.900;2023-12-20T04:50:13;98445.38;;;9.07;58.79
21433;BME280;18592;49.708;10.900;2023-12-20T04:52:16;98442.91;;;9.05;58.88
21433;BME280;18592;49.708;10.900;2023-12-20T04:54:17;98448.34;;;9.05;59.22
21433;BME280;18592;49.708;10.900;2023-12-20T04:56:19;98454.84;;;9.04;58.84
21433;BME280;18592;49.708;10.900;2023-12-20T04:58:20;98454.84;;;9.04;59.18
21433;BME280;18592;49.708;10.900;2023-12-20T05:00:22;98455.94;;;9.03;58.74
21433;BME280;18592;49.708;10.900;2023-12-20T05:02:23;98444.22;;;9.03;59.01
21433;BME280;18592;49.708;10.900;2023-12-20T05:04:25;98443.38;;;9.02;58.98
21433;BME280;18592;49.708;10.900;2023-12-20T05:06:26;98454.25;;;9.02;58.82
21433;BME280;18592;49.708;10.900;2023-12-20T05:08:28;98460.75;;;9.01;59.05
21433;BME280;18592;49.708;10.900;2023-12-20T05:10:29;98461.84;;;9.00;59.09
21433;BME280;18592;49.708;10.900;2023-12-20T05:12:31;98454.75;;;8.99;59.02
21433;BME280;18592;49.708;10.900;2023-12-20T05:14:37;98453.06;;;8.98;59.12
21433;BME280;18592;49.708;10.900;2023-12-20T05:16:39;98453.91;;;8.99;59.05
21433;BME280;18592;49.708;10.900;2023-12-20T05:18:40;98465.63;;;8.99;59.03
21433;BME280;18592;49.708;10.900;2023-12-20T05:20:42;98462.06;;;8.99;58.81
21433;BME280;18592;49.708;10.900;2023-12-20T05:22:43;98454.75;;;8.99;59.16
21433;BME280;18592;49.708;10.900;2023-12-20T05:24:46;98459.13;;;9.00;59.11
21433;BME280;18592;49.708;10.900;2023-12-20T05:26:50;98454.16;;;8.97;59.19
21433;BME280;18592;49.708;10.900;2023-12-20T05:28:54;98453.06;;;8.98;59.01
21433;BME280;18592;49.708;10.900;2023-12-20T05:30:55;98452.28;;;8.98;59.44
21433;BME280;18592;49.708;10.900;2023-12-20T05:32:58;98462.31;;;8.97;59.35
21433;BME280;18592;49.708;10.900;2023-12-20T05:35:00;98467.75;;;8.97;58.99
21433;BME280;18592;49.708;10.900;2023-12-20T05:37:01;98474.25;;;8.96;58.94
21433;BME280;18592;49.708;10.900;2023-12-20T05:39:03;98474.25;;;8.96;58.98
21433;BME280;18592;49.708;10.900;2023-12-20T05:41:05;98474.25;;;8.96;59.32
21433;BME280;18592;49.708;10.900;2023-12-20T05:43:07;98478.06;;;8.95;59.17
21433;BME280;18592;49.708;10.900;2023-12-20T05:45:09;98481.56;;;8.95;59.33
21433;BME280;18592;49.708;10.900;2023-12-20T05:47:10;98486.22;;;8.95;59.08
21433;BME280;18592;49.708;10.900;2023-12-20T05:49:12;98491.66;;;8.95;59.31
21433;BME280;18592;49.708;10.900;2023-12-20T05:51:13;98490.81;;;8.94;59.12
21433;BME280;18592;49.708;10.900;2023-12-20T05:53:15;98496.25;;;8.94;59.47
21433;BME280;18592;49.708;10.900;2023-12-20T05:55:16;98509.00;;;8.94;59.36
21433;BME280;18592;49.708;10.900;2023-12-20T05:57:18;98498.13;;;8.94;59.14
21433;BME280;18592;49.708;10.900;2023-12-20T05:59:20;98503.56;;;8.94;59.66
21433;BME280;18592;49.708;10.900;2023-12-20T06:01:21;98513.41;;;8.95;59.22
21433;BME280;18592;49.708;10.900;2023-12-20T06:03:23;98510.69;;;8.95;59.14
21433;BME280;18592;49.708;10.900;2023-12-20T06:05:24;98521.78;;;8.93;59.51
21433;BME280;18592;49.708;10.900;2023-12-20T06:07:26;98528.03;;;8.94;59.19
21433;BME280;18592;49.708;10.900;2023-12-20T06:09:28;98521.78;;;8.93;59.30
21433;BME280;18592;49.708;10.900;2023-12-20T06:11:32;98517.16;;;8.94;59.67
21433;BME280;18592;49.708;10.900;2023-12-20T06:13:33;98530.75;;;8.94;59.34
21433;BME280;18592;49.708;10.900;2023-12-20T06:15:35;98529.09;;;8.93;59.53
21433;BME280;18592;49.708;10.900;2023-12-20T06:17:36;98527.22;;;8.93;59.38
21433;BME280;18592;49.708;10.900;2023-12-20T06:20:16;98529.34;;;8.91;59.56
21433;BME280;18592;49.708;10.900;2023-12-20T06:23:18;98533.13;;;8.90;59.60
21433;BME280;18592;49.708;10.900;2023-12-20T06:25:23;98543.19;;;8.90;59.65
21433;BME280;18592;49.708;10.900;2023-12-20T06:27:25;98543.19;;;8.90;59.63
21433;BME280;18592;49.708;10.900;2023-12-20T06:29:26;98542.09;;;8.91;59.37
21433;BME280;18592;49.708;10.900;2023-12-20T06:31:28;98541.06;;;8.92;59.56
21433;BME280;18592;49.708;10.900;2023-12-20T06:33:29;98538.34;;;8.92;59.51
21433;BME280;18592;49.708;10.900;2023-12-20T06:35:32;98535.63;;;8.92;59.41
21433;BME280;18592;49.708;10.900;2023-12-20T06:37:37;98546.22;;;8.93;59.52
21433;BME280;18592;49.708;10.900;2023-12-20T06:39:38;98549.22;;;8.92;59.53
21433;BME280;18592;49.708;10.900;2023-12-20T06:41:40;98550.03;;;8.92;59.76
21433;BME280;18592;49.708;10.900;2023-12-20T06:43:42;98544.34;;;8.94;59.29
21433;BME280;18592;49.708;10.900;2023-12-20T06:45:54;98547.91;;;8.94;59.39
21433;BME280;18592;49.708;10.900;2023-12-20T06:48:01;98544.34;;;8.94;59.80
21433;BME280;18592;49.708;10.900;2023-12-20T06:50:02;98552.50;;;8.94;59.64
21433;BME280;18592;49.708;10.900;2023-12-20T06:52:04;98549.78;;;8.94;59.73
21433;BME280;18592;49.708;10.900;2023-12-20T06:54:06;98559.59;;;8.95;59.49
21433;BME280;18592;49.708;10.900;2023-12-20T06:56:10;98563.97;;;8.96;59.88
21433;BME280;18592;49.708;10.900;2023-12-20T06:58:15;98571.28;;;8.95;59.76
21433;BME280;18592;49.708;10.900;2023-12-20T07:00:18;98582.97;;;8.96;59.86
21433;BME280;18592;49.708;10.900;2023-12-20T07:02:21;98583.81;;;8.97;59.82
21433;BME280;18592;49.708;10.900;2023-12-20T07:04:23;98590.09;;;8.97;59.28
21433;BME280;18592;49.708;10.900;2023-12-20T07:06:25;98589.25;;;8.97;59.75
21433;BME280;18592;49.708;10.900;2023-12-20T07:08:27;98600.13;;;8.97;59.80
21433;BME280;18592;49.708;10.900;2023-12-20T07:10:29;98604.50;;;8.98;59.89
21433;BME280;18592;49.708;10.900;2023-12-20T07:12:30;98601.78;;;8.98;59.38
21433;BME280;18592;49.708;10.900;2023-12-20T07:14:32;98613.47;;;8.98;59.43
21433;BME280;18592;49.708;10.900;2023-12-20T07:16:34;98606.16;;;8.99;59.58
21433;BME280;18592;49.708;10.900;2023-12-20T07:18:36;98612.41;;;8.99;59.56
21433;BME280;18592;49.708;10.900;2023-12-20T07:20:37;98610.53;;;9.00;59.69
21433;BME280;18592;49.708;10.900;2023-12-20T07:22:39;98615.97;;;9.00;59.55
21433;BME280;18592;49.708;10.900;2023-12-20T07:24:41;98615.72;;;9.01;59.70
21433;BME280;18592;49.708;10.900;2023-12-20T07:26:42;98618.22;;;9.03;59.66
21433;BME280;18592;49.708;10.900;2023-12-20T07:28:44;98609.22;;;9.02;59.65
21433;BME280;18592;49.708;10.900;2023-12-20T07:30:46;98625.28;;;9.04;59.46
21433;BME280;18592;49.708;10.900;2023-12-20T07:32:47;98617.13;;;9.04;59.30
21433;BME280;18592;49.708;10.900;2023-12-20T07:34:49;98623.19;;;9.06;59.72
21433;BME280;18592;49.708;10.900;2023-12-20T07:36:51;98627.78;;;9.05;59.32
21433;BME280;18592;49.708;10.900;2023-12-20T07:38:53;98627.78;;;9.05;59.54
21433;BME280;18592;49.708;10.900;2023-12-20T07:40:54;98616.91;;;9.05;59.60
21433;BME280;18592;49.708;10.900;2023-12-20T07:42:56;98616.66;;;9.07;59.47
21433;BME280;18592;49.708;10.900;2023-12-20T07:44:58;98626.47;;;9.08;59.46
21433;BME280;18592;49.708;10.900;2023-12-20T07:46:59;98620.78;;;9.09;59.69
21433;BME280;18592;49.708;10.900;2023-12-20T07:49:03;98622.69;;;9.09;59.63
21433;BME280;18592;49.708;10.900;2023-12-20T07:51:05;98627.06;;;9.10;59.60
21433;BME280;18592;49.708;10.900;2023-12-20T07:53:11;98630.59;;;9.10;59.51
21433;BME280;18592;49.708;10.900;2023-12-20T07:55:16;98636.88;;;9.11;59.93
21433;BME280;18592;49.708;10.900;2023-12-20T07:57:18;98643.13;;;9.11;59.98
21433;BME280;18592;49.708;10.900;2023-12-20T07:59:20;98643.72;;;9.13;59.51
21433;BME280;18592;49.708;10.900;2023-12-20T08:01:32;98628.22;;;9.14;59.89
21433;BME280;18592;49.708;10.900;2023-12-20T08:03:36;98630.13;;;9.13;59.85
21433;BME280;18592;49.708;10.900;2023-12-20T08:05:38;98630.94;;;9.14;59.74
21433;BME280;18592;49.708;10.900;2023-12-20T08:07:41;98637.22;;;9.14;59.60
21433;BME280;18592;49.708;10.900;2023-12-20T08:09:43;98638.03;;;9.15;59.64
21433;BME280;18592;49.708;10.900;2023-12-20T08:11:46;98638.88;;;9.15;59.95
21433;BME280;18592;49.708;10.900;2023-12-20T08:13:47;98636.75;;;9.17;59.77
21433;BME280;18592;49.708;10.900;2023-12-20T08:15:55;98635.69;;;9.18;60.06
21433;BME280;18592;49.708;10.900;2023-12-20T08:18:00;98624.56;;;9.20;59.69
21433;BME280;18592;49.708;10.900;2023-12-20T08:20:02;98643.59;;;9.20;59.83
21433;BME280;18592;49.708;10.900;2023-12-20T08:22:04;98637.91;;;9.21;59.66
21433;BME280;18592;49.708;10.900;2023-12-20T08:24:08;98637.69;;;9.23;59.96
21433;BME280;18592;49.708;10.900;2023-12-20T08:26:09;98631.97;;;9.24;59.90
21433;BME280;18592;49.708;10.900;2023-12-20T08:28:11;98629.25;;;9.24;60.17
21433;BME280;18592;49.708;10.900;2023-12-20T08:30:13;98633.66;;;9.25;59.93
21433;BME280;18592;49.708;10.900;2023-12-20T08:32:19;98631.50;;;9.27;59.98
21433;BME280;18592;49.708;10.900;2023-12-20T08:34:21;98631.50;;;9.27;59.82
21433;BME280;18592;49.708;10.900;2023-12-20T08:36:23;98629.38;;;9.29;60.30
21433;BME280;18592;49.708;10.900;2023-12-20T08:38:25;98634.81;;;9.29;59.86
21433;BME280;18592;49.708;10.900;2023-12-20T08:40:26;98628.31;;;9.30;60.07
21433;BME280;18592;49.708;10.900;2023-12-20T08:42:28;98620.97;;;9.31;60.14
21433;BME280;18592;49.708;10.900;2023-12-20T08:44:32;98626.16;;;9.32;59.94
21433;BME280;18592;49.708;10.900;2023-12-20T08:46:34;98627.84;;;9.33;59.69
21433;BME280;18592;49.708;10.900;2023-12-20T08:48:36;98633.84;;;9.35;59.69
21433;BME280;18592;49.708;10.900;2023-12-20T08:50:38;98628.41;;;9.35;60.01
21433;BME280;18592;49.708;10.900;2023-12-20T08:52:41;98636.31;;;9.37;59.74
21433;BME280;18592;49.708;10.900;2023-12-20T08:54:43;98638.22;;;9.36;60.14
21433;BME280;18592;49.708;10.900;2023-12-20T08:56:46;98640.13;;;9.36;59.81
21433;BME280;18592;49.708;10.900;2023-12-20T08:58:47;98637.16;;;9.37;59.98
21433;BME280;18592;49.708;10.900;2023-12-20T09:00:49;98637.72;;;9.39;60.05
21433;BME280;18592;49.708;10.900;2023-12-20T09:02:51;98636.09;;;9.38;59.68
21433;BME280;18592;49.708;10.900;2023-12-20T09:04:53;98632.28;;;9.39;60.08
21433;BME280;18592;49.708;10.900;2023-12-20T09:06:54;98641.53;;;9.38;59.55
21433;BME280;18592;49.708;10.900;2023-12-20T09:08:56;98638.81;;;9.38;59.74
21433;BME280;18592;49.708;10.900;2023-12-20T09:10:58;98633.13;;;9.40;60.07
21433;BME280;18592;49.708;10.900;2023-12-20T09:13:00;98629.56;;;9.39;59.67
21433;BME280;18592;49.708;10.900;2023-12-20T09:15:01;98635.84;;;9.40;59.76
21433;BME280;18592;49.708;10.900;2023-12-20T09:17:04;98635.84;;;9.40;59.60
21433;BME280;18592;49.708;10.900;2023-12-20T09:19:06;98638.09;;;9.43;59.75
21433;BME280;18592;49.708;10.900;2023-12-20T09:21:08;98635.59;;;9.41;59.68
21433;BME280;18592;49.708;10.900;2023-12-20T09:23:09;98657.97;;;9.43;60.06
21433;BME280;18592;49.708;10.900;2023-12-20T09:25:11;98652.53;;;9.43;60.05
21433;BME280;18592;49.708;10.900;2023-12-20T09:27:14;98655.00;;;9.45;60.12
21433;BME280;18592;49.708;10.900;2023-12-20T09:29:15;98657.47;;;9.46;60.13
21433;BME280;18592;49.708;10.900;2023-12-20T09:31:17;98653.44;;;9.49;60.10
21433;BME280;18592;49.708;10.900;2023-12-20T09:33:19;98661.38;;;9.50;59.75
21433;BME280;18592;49.708;10.900;2023-12-20T09:35:21;98664.66;;;9.52;60.08
21433;BME280;18592;49.708;10.900;2023-12-20T09:37:27;98671.78;;;9.53;59.89
21433;BME280;18592;49.708;10.900;2023-12-20T09:39:29;98677.78;;;9.55;59.95
21433;BME280;18592;49.708;10.900;2023-12-20T09:41:31;98665.25;;;9.54;59.99
21433;BME280;18592;49.708;10.900;2023-12-20T09:43:37;98665.59;;;9.58;59.82
21433;BME280;18592;49.708;10.900;2023-12-20T09:45:39;98680.03;;;9.58;60.05
21433;BME280;18592;49.708;10.900;2023-12-20T09:47:43;98671.88;;;9.58;59.85
21433;BME280;18592;49.708;10.900;2023-12-20T09:49:45;98670.78;;;9.59;59.62
21433;BME280;18592;49.708;10.900;2023-12-20T09:51:47;98666.75;;;9.62;60.13
21433;BME280;18592;49.708;10.900;2023-12-20T09:53:54;98668.41;;;9.63;59.91
21433;BME280;18592;49.708;10.900;2023-12-20T09:56:00;98679.06;;;9.65;59.98
21433;BME280;18592;49.708;10.900;2023-12-20T09:58:02;98660.84;;;9.65;60.16
21433;BME280;18592;49.708;10.900;2023-12-20T10:00:04;98664.13;;;9.67;59.92
21433;BME280;18592;49.708;10.900;2023-12-20T10:02:13;98668.28;;;9.70;59.63
21433;BME280;18592;49.708;10.900;2023-12-20T10:04:18;98669.09;;;9.70;59.79
21433;BME280;18592;49.708;10.900;2023-12-20T10:06:30;98669.94;;;9.71;59.79
21433;BME280;18592;49.708;10.900;2023-12-20T10:08:32;98666.13;;;9.72;59.88
21433;BME280;18592;49.708;10.900;2023-12-20T10:10:34;98664.00;;;9.74;60.20
21433;BME280;18592;49.708;10.900;2023-12-20T10:13:05;98662.91;;;9.75;59.77
21433;BME280;18592;49.708;10.900;2023-12-20T10:15:07;98656.41;;;9.76;59.98
21433;BME280;18592;49.708;10.900;2023-12-20T10:17:14;98660.78;;;9.77;59.90
21433;BME280;18592;49.708;10.900;2023-12-20T10:19:19;98661.59;;;9.77;59.99
21433;BME280;18592;49.708;10.900;2023-12-20T10:21:22;98652.13;;;9.80;59.67
21433;BME280;18592;49.708;10.900;2023-12-20T10:23:23;98645.38;;;9.82;59.93
21433;BME280;18592;49.708;10.900;2023-12-20T10:25:25;98639.94;;;9.82;59.67
21433;BME280;18592;49.708;10.900;2023-12-20T10:27:27;98634.47;;;9.82;59.73
21433;BME280;18592;49.708;10.900;2023-12-20T10:29:37;98626.09;;;9.84;59.60
21433;BME280;18592;49.708;10.900;2023-12-20T10:31:39;98630.44;;;9.85;59.73
21433;BME280;18592;49.708;10.900;2023-12-20T10:33:41;98620.38;;;9.85;59.59
21433;BME280;18592;49.708;10.900;2023-12-20T10:35:43;98631.03;;;9.87;59.50
21433;BME280;18592;49.708;10.900;2023-12-20T10:37:49;98625.34;;;9.88;59.69
21433;BME280;18592;49.708;10.900;2023-12-20T10:39:53;98628.91;;;9.89;59.68
21433;BME280;18592;49.708;10.900;2023-12-20T10:41:59;98626.75;;;9.91;59.89
21433;BME280;18592;49.708;10.900;2023-12-20T10:44:03;98630.06;;;9.93;59.65
21433;BME280;18592;49.708;10.900;2023-12-20T10:46:06;98622.47;;;9.95;59.79
21433;BME280;18592;49.708;10.900;2023-12-20T10:48:10;98622.81;;;9.98;59.74
21433;BME280;18592;49.708;10.900;2023-12-20T10:50:12;98616.03;;;10.01;59.88